Rochester/St. Mary\'s Hospita, MN

3:13 PM CST on December 11, 2017 (GMT -0600)
Rochester/St. Mary\'s Hospita

Weather History for K9MN - September, 2013

Change the Weather History Date:

Friday, September 27, 2013

  Actual Average (KRST) Record (KRST)
Temperature  
Mean Temperature 70 °F -  
Max Temperature 79 °F 66 °F 86 °F (1943)
Min Temperature 61 °F 44 °F 28 °F (1942)
Cooling Degree Days 5    
Growing Degree Days 20 (Base 50)    
Moisture  
Dew Point 54 °F    
Average Humidity 57    
Maximum Humidity 70    
Minimum Humidity 42    
Precipitation  
Precipitation 0.00 in - - ()
Sea Level Pressure  
Sea Level Pressure 29.95 in    
Wind  
Wind Speed 12 mph (SE)    
Max Wind Speed 23 mph    
Max Gust Speed 37 mph    
Visibility 10 miles    
Events      
Averages and records for this station are not official NWS values.
T = Trace of Precipitation, MM = Missing Value Source: NWS Daily Summary

Daily Weather History Graph

Daily Weather History Graph

Search for Another Location

Airport or City:

Trip Planner

Search our weather history database for the weather conditions in past years. The results will help you decide how hot, cold, wet, or windy it might be!

Date:

Astronomy

Sep. 27, 2013 Rise Set
Actual Time 7:03 AM CDT 6:57 PM CDT
Civil Twilight 6:34 AM CDT 7:26 PM CDT
Nautical Twilight 6:00 AM CDT 7:59 PM CDT
Astronomical Twilight 5:26 AM CDT 8:33 PM CDT
Moon No Moon Rise 2:47 PM CDT (9/27)
Length of Visible Light 12h 51m
Length of Day
11h 54m
Last Quarter, 45% of the Moon is Illuminated
Sep 27
Last Quarter
Oct 4
New
Oct 11
First Quarter
Oct 18
Full
Oct 26
Last Quarter

Hourly Weather History & Observations

Time (CDT) Temp. Dew Point Humidity Pressure Visibility Wind Dir Wind Speed Gust Speed Precip Events Conditions
12:14 AM 66.7 °F 54.5 °F 65% 29.97 in 10.0 mi SE 13.8 mph - N/A   Clear
12:33 AM 66.4 °F 54.5 °F 66% 29.98 in 10.0 mi SE 9.2 mph 17.3 mph N/A   Clear
12:53 AM 66.2 °F 54.5 °F 66% 29.98 in 10.0 mi SE 9.2 mph 16.1 mph N/A   Clear
1:14 AM 65.8 °F 54.5 °F 67% 29.99 in 10.0 mi SE 10.4 mph 18.4 mph N/A   Clear
1:33 AM 65.7 °F 54.5 °F 67% 29.99 in 10.0 mi SE 11.5 mph 19.6 mph N/A   Clear
1:53 AM 65.5 °F 54.5 °F 68% 29.99 in 10.0 mi SE 12.7 mph 20.7 mph N/A   Clear
2:14 AM 65.3 °F 54.1 °F 67% 30.00 in 10.0 mi SE 10.4 mph 19.6 mph N/A   Clear
2:33 AM 64.9 °F 54.0 °F 68% 29.99 in 10.0 mi SE 11.5 mph 16.1 mph N/A   Clear
2:54 AM 64.8 °F 53.8 °F 68% 29.99 in 10.0 mi ESE 9.2 mph - N/A   Clear
3:14 AM 63.9 °F 53.2 °F 68% 29.99 in 10.0 mi ESE 10.4 mph - N/A   Clear
3:33 AM 63.1 °F 52.9 °F 69% 29.99 in 10.0 mi ESE 10.4 mph 16.1 mph N/A   Clear
3:54 AM 62.6 °F 52.7 °F 70% 29.99 in 10.0 mi SE 12.7 mph 17.3 mph N/A   Clear
4:14 AM 62.2 °F 52.2 °F 70% 29.99 in 10.0 mi ESE 10.4 mph - N/A   Clear
4:33 AM 62.1 °F 51.8 °F 69% 29.99 in 10.0 mi ESE 10.4 mph - N/A   Clear
4:54 AM 62.1 °F 51.8 °F 69% 29.99 in 10.0 mi SE 9.2 mph - N/A   Clear
5:14 AM 62.1 °F 51.8 °F 69% 29.99 in 10.0 mi ESE 9.2 mph - N/A   Clear
5:33 AM 61.7 °F 51.8 °F 70% 29.99 in 10.0 mi ESE 9.2 mph - N/A   Clear
5:54 AM 61.7 °F 51.8 °F 70% 29.98 in 10.0 mi ESE 9.2 mph - N/A   Clear
6:14 AM 61.7 °F 51.8 °F 70% 29.99 in 10.0 mi ESE 10.4 mph 16.1 mph N/A   Clear
6:33 AM 61.7 °F 51.8 °F 70% 29.99 in 10.0 mi ESE 6.9 mph - N/A   Clear
6:54 AM 61.9 °F 51.8 °F 69% 29.99 in 10.0 mi SE 10.4 mph - N/A   Clear
7:13 AM 61.9 °F 52.0 °F 70% 29.99 in 10.0 mi SE 10.4 mph - N/A   Clear
7:33 AM 61.9 °F 52.0 °F 70% 29.99 in 10.0 mi ESE 8.1 mph - N/A   Clear
7:54 AM 61.9 °F 51.8 °F 69% 29.99 in 10.0 mi SE 8.1 mph - N/A   Clear
8:13 AM 62.6 °F 52.2 °F 69% 30.00 in 10.0 mi SE 8.1 mph - N/A   Clear
8:33 AM 63.5 °F 52.7 °F 68% 30.01 in 10.0 mi SE 6.9 mph - N/A   Clear
8:54 AM 65.1 °F 53.6 °F 66% 30.00 in 10.0 mi SE 11.5 mph 17.3 mph N/A   Clear
9:13 AM 66.6 °F 54.5 °F 65% 30.00 in 10.0 mi SE 12.7 mph 18.4 mph N/A   Clear
9:33 AM 68.5 °F 55.4 °F 63% 30.00 in 10.0 mi SSE 17.3 mph 25.3 mph N/A   Clear
9:54 AM 69.3 °F 55.9 °F 62% 30.00 in 10.0 mi SSE 16.1 mph 23.0 mph N/A   Mostly Cloudy
10:13 AM 69.8 °F 55.9 °F 61% 30.00 in 10.0 mi SSE 12.7 mph 27.6 mph N/A   Overcast
10:33 AM 70.7 °F 56.7 °F 61% 30.00 in 10.0 mi SSE 10.4 mph 19.6 mph N/A   Mostly Cloudy
10:54 AM 72.0 °F 56.8 °F 59% 29.99 in 10.0 mi SE 12.7 mph 27.6 mph N/A   Scattered Clouds
11:13 AM 72.7 °F 57.0 °F 58% 29.99 in 10.0 mi SE 15.0 mph 27.6 mph N/A   Scattered Clouds
11:33 AM 74.3 °F 57.6 °F 56% 29.98 in 10.0 mi SE 13.8 mph 23.0 mph N/A   Scattered Clouds
11:54 AM 76.8 °F 57.7 °F 52% 29.98 in 10.0 mi SE 10.4 mph 27.6 mph N/A   Clear
12:13 PM 76.1 °F 57.0 °F 51% 29.97 in 10.0 mi SSE 17.3 mph 32.2 mph N/A   Mostly Cloudy
12:33 PM 77.2 °F 57.2 °F 50% 29.96 in 10.0 mi SE 13.8 mph 29.9 mph N/A   Mostly Cloudy
12:54 PM 77.7 °F 56.8 °F 48% 29.95 in 10.0 mi SE 15.0 mph 28.8 mph N/A   Scattered Clouds
1:13 PM 78.3 °F 56.3 °F 47% 29.95 in 10.0 mi SE 23.0 mph 29.9 mph N/A   Clear
1:33 PM 79.0 °F 55.0 °F 44% 29.94 in 10.0 mi SE 16.1 mph 31.1 mph N/A   Clear
1:54 PM 78.8 °F 54.1 °F 42% 29.93 in 10.0 mi SE 16.1 mph 24.2 mph N/A   Scattered Clouds
2:13 PM 77.9 °F 54.5 °F 44% 29.92 in 10.0 mi SE 17.3 mph 31.1 mph N/A   Clear
2:33 PM 77.9 °F 55.2 °F 45% 29.91 in 10.0 mi SE 17.3 mph 27.6 mph N/A   Clear
2:54 PM 78.3 °F 55.8 °F 46% 29.90 in 10.0 mi SE 17.3 mph 27.6 mph N/A   Clear
3:13 PM 79.3 °F 55.6 °F 44% 29.90 in 10.0 mi SE 21.9 mph 33.4 mph N/A   Clear
3:34 PM 79.0 °F 56.1 °F 45% 29.89 in 10.0 mi SE 18.4 mph 36.8 mph N/A   Clear
3:53 PM 79.5 °F 56.5 °F 45% 29.89 in 10.0 mi SE 16.1 mph 29.9 mph N/A   Clear
4:13 PM 79.5 °F 56.3 °F 45% 29.90 in 10.0 mi SE 20.7 mph 31.1 mph N/A   Clear
4:34 PM 79.3 °F 55.9 °F 44% 29.90 in 10.0 mi SE 18.4 mph 29.9 mph N/A   Clear
4:53 PM 79.3 °F 56.1 °F 45% 29.91 in 10.0 mi SSE 13.8 mph 29.9 mph N/A   Clear
5:13 PM 79.5 °F 55.8 °F 44% 29.91 in 10.0 mi SSE 11.5 mph 20.7 mph N/A   Clear
5:34 PM 78.8 °F 55.8 °F 45% 29.91 in 10.0 mi SE 11.5 mph 25.3 mph N/A   Clear
5:53 PM 77.9 °F 55.9 °F 47% 29.91 in 10.0 mi SE 13.8 mph 23.0 mph N/A   Clear
6:13 PM 77.5 °F 55.8 °F 47% 29.92 in 10.0 mi SE 15.0 mph 25.3 mph N/A   Clear
6:34 PM 77.0 °F 55.6 °F 47% 29.92 in 10.0 mi SE 11.5 mph 19.6 mph N/A   Clear
6:53 PM 76.3 °F 55.4 °F 48% 29.92 in 10.0 mi SE 13.8 mph 19.6 mph N/A   Clear
7:13 PM 75.7 °F 55.0 °F 49% 29.92 in 10.0 mi SE 11.5 mph 18.4 mph N/A   Clear
7:34 PM 75.2 °F 55.0 °F 49% 29.91 in 10.0 mi SE 10.4 mph 18.4 mph N/A   Clear
7:53 PM 74.5 °F 55.0 °F 51% 29.91 in 10.0 mi SE 11.5 mph 20.7 mph N/A   Clear
8:13 PM 73.6 °F 55.4 °F 53% 29.91 in 10.0 mi ESE 10.4 mph - N/A   Clear
8:34 PM 72.5 °F 55.8 °F 56% 29.91 in 10.0 mi ESE 10.4 mph 17.3 mph N/A   Clear
8:53 PM 72.5 °F 55.2 °F 54% 29.91 in 10.0 mi SE 15.0 mph 21.9 mph N/A   Clear
9:13 PM 72.5 °F 54.0 °F 52% 29.91 in 10.0 mi SE 15.0 mph 21.9 mph N/A   Clear
9:34 PM 72.1 °F 53.2 °F 51% 29.91 in 10.0 mi ESE 11.5 mph 21.9 mph N/A   Clear
9:53 PM 71.1 °F 53.1 °F 53% 29.91 in 10.0 mi SE 12.7 mph 19.6 mph N/A   Clear
10:13 PM 70.0 °F 53.6 °F 56% 29.91 in 10.0 mi SE 13.8 mph 19.6 mph N/A   Clear
10:34 PM 70.0 °F 52.7 °F 54% 29.91 in 10.0 mi SE 16.1 mph 21.9 mph N/A   Clear
10:53 PM 69.8 °F 52.2 °F 53% 29.91 in 10.0 mi SE 16.1 mph 23.0 mph N/A   Clear
11:14 PM 69.8 °F 51.8 °F 53% 29.92 in 10.0 mi SE 12.7 mph 21.9 mph N/A   Clear
11:34 PM 69.6 °F 51.3 °F 52% 29.91 in 10.0 mi SE 13.8 mph 24.2 mph N/A   Clear
11:53 PM 69.1 °F 51.1 °F 53% 29.90 in 10.0 mi SE 12.7 mph 25.3 mph N/A   Clear